Time;durP1;ratioP1;P1;durP2;ratioP2;P2;SDS_P1;SDS_P2;PMS_P1;PMS_P2;Temp;Humidity;BMP_temperature;BMP_pressure;BME280_temperature;BME280_humidity;BME280_pressure;Samples;Min_cycle;Max_cycle;Signal;HPM_P1;HPM_P2
2021/10/30 00:00:18;;;;;;;5.40;1.67;;;8.60;99.90;;;;;;5074908;28;20632;-67
2021/10/30 00:02:48;;;;;;;2.83;2.63;;;8.60;99.90;;;;;;5074553;28;20208;-65
2021/10/30 00:05:17;;;;;;;1.80;1.70;;;8.50;99.90;;;;;;5074486;28;20192;-67
2021/10/30 00:07:45;;;;;;;10.50;2.42;;;8.50;99.90;;;;;;5074669;28;20241;-65
2021/10/30 00:10:15;;;;;;;2.40;1.60;;;8.50;99.90;;;;;;5074728;28;20541;-65
2021/10/30 00:12:44;;;;;;;7.00;2.25;;;8.50;99.90;;;;;;5074628;28;20246;-65
2021/10/30 00:15:12;;;;;;;4.22;3.92;;;8.50;99.90;;;;;;5074480;28;20200;-66
2021/10/30 00:17:41;;;;;;;4.22;1.70;;;8.50;99.90;;;;;;5056328;28;20191;-65
2021/10/30 00:20:12;;;;;;;3.05;2.08;;;8.50;99.90;;;;;;5074342;28;20176;-66
2021/10/30 00:22:40;;;;;;;2.03;1.80;;;8.50;99.90;;;;;;5074248;28;20219;-66
2021/10/30 00:25:08;;;;;;;7.18;2.10;;;8.40;99.90;;;;;;5074274;28;20291;-66
2021/10/30 00:27:37;;;;;;;4.75;2.13;;;8.30;99.90;;;;;;5074214;28;20176;-66
2021/10/30 00:30:06;;;;;;;3.83;1.30;;;8.30;99.90;;;;;;5056341;28;20192;-65
2021/10/30 00:32:34;;;;;;;1.83;1.42;;;8.30;99.90;;;;;;5074034;28;20215;-66
2021/10/30 00:35:03;;;;;;;4.22;3.85;;;8.20;99.90;;;;;;5073941;28;20337;-66
2021/10/30 00:37:32;;;;;;;3.33;1.90;;;8.20;99.90;;;;;;5074160;28;20519;-65
2021/10/30 00:40:00;;;;;;;11.77;2.92;;;8.20;99.90;;;;;;5073999;28;20196;-66
2021/10/30 00:42:28;;;;;;;1.90;1.70;;;8.30;99.90;;;;;;5073927;28;20714;-66
2021/10/30 00:44:57;;;;;;;4.65;3.20;;;8.20;99.90;;;;;;5074433;28;20289;-65
2021/10/30 00:47:25;;;;;;;2.47;2.13;;;8.20;99.90;;;;;;5073899;28;20176;-66
2021/10/30 00:49:53;;;;;;;3.47;2.40;;;8.10;99.90;;;;;;5073831;28;20608;-66
2021/10/30 00:52:22;;;;;;;7.30;2.40;;;8.10;99.90;;;;;;5074018;28;20207;-67
2021/10/30 00:54:56;;;;;;;7.18;4.97;;;8.10;99.90;;;;;;5073732;28;20222;-67
2021/10/30 00:57:26;;;;;;;2.80;2.55;;;8.10;99.90;;;;;;5073656;28;20211;-67
2021/10/30 00:59:55;;;;;;;2.97;1.88;;;8.10;99.90;;;;;;5073962;28;20184;-67
2021/10/30 01:02:23;;;;;;;3.50;2.83;;;8.20;99.90;;;;;;5073436;28;20240;-67
2021/10/30 01:04:52;;;;;;;6.40;1.80;;;8.20;99.90;;;;;;5073190;28;20311;-66
2021/10/30 01:07:20;;;;;;;1.77;1.33;;;8.20;99.90;;;;;;5054317;28;20196;-66
2021/10/30 01:09:50;;;;;;;3.80;2.97;;;8.10;99.90;;;;;;5073703;28;20211;-66
2021/10/30 01:12:20;;;;;;;3.88;2.60;;;8.20;99.90;;;;;;5073455;28;20308;-66
2021/10/30 01:14:49;;;;;;;1.48;1.13;;;8.10;99.90;;;;;;5073618;28;20207;-66
2021/10/30 01:17:17;;;;;;;3.42;1.75;;;8.10;99.90;;;;;;5073751;28;20176;-66
2021/10/30 01:19:45;;;;;;;1.60;1.50;;;8.10;99.90;;;;;;5073966;28;20212;-66
2021/10/30 01:22:15;;;;;;;4.60;1.70;;;8.00;99.90;;;;;;5073943;28;20208;-65
2021/10/30 01:24:43;;;;;;;4.95;4.45;;;8.00;99.90;;;;;;5073723;28;20731;-67
2021/10/30 01:27:11;;;;;;;3.30;3.00;;;8.10;99.90;;;;;;5073557;28;20180;-65
2021/10/30 01:29:40;;;;;;;3.55;2.47;;;8.10;99.90;;;;;;5073495;28;20195;-65
2021/10/30 01:32:08;;;;;;;3.35;1.63;;;8.20;99.90;;;;;;5073517;28;20204;-65
2021/10/30 01:34:37;;;;;;;1.27;1.13;;;8.20;99.90;;;;;;5073522;28;20369;-65
2021/10/30 01:37:05;;;;;;;2.40;1.45;;;8.10;99.90;;;;;;5072939;28;20165;-66
2021/10/30 01:39:36;;;;;;;4.80;3.17;;;8.20;99.90;;;;;;5072926;28;20177;-66
2021/10/30 01:42:04;;;;;;;4.15;2.88;;;8.20;99.90;;;;;;5054491;28;20231;-66
2021/10/30 01:44:33;;;;;;;2.80;2.50;;;8.10;99.90;;;;;;5055392;28;20294;-64
2021/10/30 01:47:01;;;;;;;6.35;2.70;;;8.10;99.90;;;;;;5074017;28;20175;-65
2021/10/30 01:49:30;;;;;;;1.88;1.65;;;8.00;99.90;;;;;;5073873;28;20722;-66
2021/10/30 01:51:59;;;;;;;3.75;2.80;;;8.10;99.90;;;;;;5074006;28;20200;-66
2021/10/30 01:54:28;;;;;;;2.55;2.13;;;8.10;99.90;;;;;;5073447;28;20237;-66
2021/10/30 01:56:59;;;;;;;4.93;1.70;;;8.20;99.90;;;;;;5072715;28;20215;-66
2021/10/30 01:59:29;;;;;;;2.45;2.25;;;8.10;99.90;;;;;;5072854;28;20165;-66
2021/10/30 02:01:59;;;;;;;3.75;1.13;;;8.10;99.90;;;;;;5072386;28;20250;-66
2021/10/30 02:04:27;;;;;;;2.35;2.03;;;8.20;99.90;;;;;;5072575;28;20208;-66
2021/10/30 02:06:55;;;;;;;2.60;2.20;;;8.10;99.90;;;;;;5072439;28;20183;-66
2021/10/30 02:09:24;;;;;;;1.75;1.48;;;8.20;99.90;;;;;;5072338;28;20172;-66
2021/10/30 02:11:52;;;;;;;3.30;1.85;;;8.20;99.90;;;;;;5054232;28;20630;-66
2021/10/30 02:14:21;;;;;;;4.70;2.88;;;8.20;99.90;;;;;;5072262;28;20172;-66
2021/10/30 02:16:49;;;;;;;1.25;1.15;;;8.10;99.90;;;;;;5072131;28;20180;-68
2021/10/30 02:19:17;;;;;;;2.50;2.08;;;8.10;99.90;;;;;;5071746;28;20192;-67
2021/10/30 02:21:45;;;;;;;4.63;1.75;;;8.10;99.90;;;;;;5072015;28;20184;-67
2021/10/30 02:24:14;;;;;;;1.25;1.15;;;8.20;99.90;;;;;;5072591;28;20169;-67
2021/10/30 02:26:43;;;;;;;4.68;2.40;;;8.10;99.90;;;;;;5072781;28;20172;-66
2021/10/30 02:29:11;;;;;;;1.10;0.90;;;8.10;99.90;;;;;;5073202;28;20172;-67
2021/10/30 02:31:41;;;;;;;3.67;1.55;;;8.10;99.90;;;;;;5072876;28;20169;-66
2021/10/30 02:34:10;;;;;;;3.85;2.58;;;8.10;99.90;;;;;;5054122;28;20201;-67
2021/10/30 02:36:38;;;;;;;1.10;0.90;;;8.20;99.90;;;;;;5072243;28;20218;-67
2021/10/30 02:39:06;;;;;;;4.13;2.42;;;8.20;99.90;;;;;;5053910;28;20188;-68
2021/10/30 02:41:34;;;;;;;3.28;2.97;;;8.20;99.90;;;;;;5072059;28;20211;-65
2021/10/30 02:44:02;;;;;;;5.97;2.72;;;8.10;99.90;;;;;;5071681;28;20200;-65
2021/10/30 02:46:31;;;;;;;2.95;2.65;;;8.10;99.90;;;;;;5071649;28;20192;-66
2021/10/30 02:49:00;;;;;;;5.20;2.00;;;8.10;99.90;;;;;;5071473;28;20196;-66
2021/10/30 02:51:28;;;;;;;3.30;2.63;;;8.10;99.90;;;;;;5071651;28;20195;-67
2021/10/30 02:53:56;;;;;;;6.70;2.55;;;8.10;99.90;;;;;;5071376;28;20698;-67
2021/10/30 02:56:25;;;;;;;18.45;1.92;;;8.20;99.90;;;;;;5071570;28;20176;-66
2021/10/30 02:58:54;;;;;;;3.80;2.35;;;8.10;99.90;;;;;;5053556;28;20562;-67
2021/10/30 03:01:22;;;;;;;1.67;1.58;;;8.00;99.90;;;;;;5071722;28;20211;-66
2021/10/30 03:03:50;;;;;;;8.52;2.75;;;8.00;99.90;;;;;;5053568;28;20230;-67
2021/10/30 03:06:22;;;;;;;4.82;2.15;;;8.00;99.90;;;;;;5053823;28;20322;-66
2021/10/30 03:08:50;;;;;;;2.45;2.17;;;8.10;99.90;;;;;;5071722;28;20186;-66
2021/10/30 03:11:18;;;;;;;6.82;3.72;;;8.10;99.90;;;;;;5071345;28;20184;-66
2021/10/30 03:13:47;;;;;;;1.20;1.00;;;8.10;99.90;;;;;;5071704;28;20763;-65
2021/10/30 03:16:15;;;;;;;2.25;2.05;;;8.00;99.90;;;;;;5071505;28;20184;-66
2021/10/30 03:18:43;;;;;;;1.63;1.52;;;7.90;99.90;;;;;;5071449;28;20687;-65
2021/10/30 03:21:11;;;;;;;3.53;2.50;;;7.90;99.90;;;;;;5071522;28;20246;-65
2021/10/30 03:23:42;;;;;;;2.85;2.60;;;7.80;99.90;;;;;;5072179;28;20574;-65
2021/10/30 03:26:10;;;;;;;2.30;1.35;;;7.90;99.90;;;;;;5071396;28;20196;-67
2021/10/30 03:28:38;;;;;;;2.58;1.85;;;7.80;99.90;;;;;;5072850;28;20588;-66
2021/10/30 03:31:06;;;;;;;1.63;1.52;;;7.90;99.90;;;;;;5073237;28;20688;-67
2021/10/30 03:33:34;;;;;;;2.95;2.75;;;7.90;99.90;;;;;;5056325;28;20760;-67
2021/10/30 03:36:05;;;;;;;2.75;1.95;;;7.80;99.90;;;;;;5073969;28;20203;-65
2021/10/30 03:38:33;;;;;;;3.30;1.75;;;7.80;99.90;;;;;;5053305;28;20202;-67
2021/10/30 03:41:02;;;;;;;5.40;2.58;;;7.80;99.90;;;;;;5071266;28;20199;-65
2021/10/30 03:43:30;;;;;;;1.42;1.08;;;7.80;99.90;;;;;;5071206;28;20203;-66
2021/10/30 03:45:59;;;;;;;2.53;2.33;;;7.80;99.90;;;;;;5071338;28;20257;-65
2021/10/30 03:48:27;;;;;;;6.43;2.67;;;7.80;99.90;;;;;;5072589;28;20177;-66
2021/10/30 03:50:55;;;;;;;2.35;2.08;;;7.70;99.90;;;;;;5075065;28;20667;-68
2021/10/30 03:53:23;;;;;;;1.85;1.63;;;7.80;99.90;;;;;;5076327;28;20204;-66
2021/10/30 03:55:51;;;;;;;3.28;1.30;;;7.80;99.90;;;;;;5074505;28;20683;-67
2021/10/30 03:58:21;;;;;;;3.20;2.97;;;7.80;99.90;;;;;;5076202;28;20180;-66
2021/10/30 04:00:54;;;;;;;5.47;2.45;;;7.70;99.90;;;;;;5071449;28;20179;-66
2021/10/30 04:03:23;;;;;;;3.00;2.80;;;7.60;99.90;;;;;;5070830;28;20269;-67
2021/10/30 04:05:51;;;;;;;2.28;1.98;;;7.60;99.90;;;;;;5055261;22;20236;-62
2021/10/30 04:08:20;;;;;;;1.05;0.85;;;7.60;99.90;;;;;;5030539;28;20732;-64
2021/10/30 04:10:49;;;;;;;2.30;2.10;;;7.70;99.90;;;;;;5030804;28;20206;-64
2021/10/30 04:13:17;;;;;;;2.03;1.83;;;7.60;99.90;;;;;;5030596;28;20217;-64
2021/10/30 04:15:46;;;;;;;3.65;2.45;;;7.60;99.90;;;;;;5030541;28;20173;-63
2021/10/30 04:18:14;;;;;;;5.03;2.25;;;7.60;99.90;;;;;;5030376;28;20189;-62
2021/10/30 04:20:42;;;;;;;3.50;1.75;;;7.60;99.90;;;;;;5030947;28;20216;-63
2021/10/30 04:23:11;;;;;;;4.82;2.88;;;7.60;99.90;;;;;;5030644;28;20573;-63
2021/10/30 04:25:40;;;;;;;3.67;2.03;;;7.60;99.90;;;;;;5030421;28;20206;-65
2021/10/30 04:28:08;;;;;;;2.03;1.52;;;7.60;99.90;;;;;;5030631;28;20228;-64
2021/10/30 04:30:36;;;;;;;1.42;1.20;;;7.50;99.90;;;;;;5030674;28;20547;-64
2021/10/30 04:33:07;;;;;;;5.38;3.30;;;7.50;99.90;;;;;;5028875;28;20217;-63
2021/10/30 04:35:38;;;;;;;3.33;2.50;;;7.60;99.90;;;;;;5030718;28;20186;-63
2021/10/30 04:38:07;;;;;;;2.85;1.60;;;7.60;99.90;;;;;;5030289;28;20174;-64
2021/10/30 04:40:35;;;;;;;3.63;1.40;;;7.60;99.90;;;;;;5030298;28;20661;-64
2021/10/30 04:43:04;;;;;;;2.10;1.90;;;7.60;99.90;;;;;;5033591;28;20253;-63
2021/10/30 04:45:33;;;;;;;3.92;2.65;;;7.60;99.90;;;;;;5033636;28;20260;-63
2021/10/30 04:48:01;;;;;;;3.65;2.67;;;7.60;99.90;;;;;;5033665;28;20598;-65
2021/10/30 04:50:31;;;;;;;1.73;1.58;;;7.60;99.90;;;;;;5033657;28;20177;-65
2021/10/30 04:52:59;;;;;;;4.63;3.05;;;7.60;99.90;;;;;;5033693;28;20209;-62
2021/10/30 04:55:27;;;;;;;3.25;2.95;;;7.50;99.90;;;;;;5034639;28;20296;-63
2021/10/30 04:57:55;;;;;;;3.80;2.17;;;7.60;99.90;;;;;;5034508;28;20182;-62
2021/10/30 05:00:24;;;;;;;1.70;1.30;;;7.60;99.90;;;;;;5034363;28;20194;-62
2021/10/30 05:02:52;;;;;;;3.33;2.17;;;7.60;99.90;;;;;;5033880;28;20267;-63
2021/10/30 05:05:20;;;;;;;2.60;2.40;;;7.60;99.90;;;;;;5033849;28;20232;-63
2021/10/30 05:07:50;;;;;;;2.10;1.45;;;7.60;99.90;;;;;;5033157;28;20198;-63
2021/10/30 05:10:18;;;;;;;6.70;1.85;;;7.50;99.90;;;;;;5033321;28;20182;-64
2021/10/30 05:12:46;;;;;;;1.90;1.75;;;7.50;99.90;;;;;;5033535;28;20603;-64
2021/10/30 05:15:14;;;;;;;2.03;1.85;;;7.50;99.90;;;;;;5033225;28;20533;-62
2021/10/30 05:17:42;;;;;;;2.67;2.03;;;7.50;99.90;;;;;;5032932;28;20583;-62
2021/10/30 05:20:12;;;;;;;2.95;2.70;;;7.50;99.90;;;;;;5033174;28;20170;-62
2021/10/30 05:22:40;;;;;;;2.63;1.83;;;7.40;99.90;;;;;;5032837;28;20232;-62
2021/10/30 05:25:10;;;;;;;3.15;2.17;;;7.40;99.90;;;;;;5033142;28;20185;-62
2021/10/30 05:27:38;;;;;;;1.13;0.90;;;7.40;99.90;;;;;;5032894;28;20194;-62
2021/10/30 05:30:06;;;;;;;1.45;1.00;;;7.40;99.90;;;;;;5033178;28;20519;-63
2021/10/30 05:32:35;;;;;;;1.48;1.38;;;7.30;99.90;;;;;;5032539;28;20225;-64
2021/10/30 05:35:21;;;;;;;2.85;2.28;;;7.30;99.90;;;;;;5033106;28;20546;-62
2021/10/30 05:38:08;;;;;;;4.20;3.20;;;7.20;99.90;;;;;;5032952;28;20184;-62
2021/10/30 05:40:38;;;;;;;7.45;1.75;;;7.10;99.90;;;;;;5032834;28;20193;-64
2021/10/30 05:43:12;;;;;;;2.42;2.22;;;7.10;99.90;;;;;;5032520;28;20228;-62
2021/10/30 05:45:42;;;;;;;3.28;2.45;;;7.10;99.90;;;;;;5033099;28;20186;-62
2021/10/30 05:48:13;;;;;;;2.53;1.75;;;7.10;99.90;;;;;;5032527;28;20588;-62
2021/10/30 05:50:41;;;;;;;3.40;2.10;;;7.10;99.90;;;;;;5032975;28;20662;-63
2021/10/30 05:53:09;;;;;;;8.30;3.30;;;7.00;99.90;;;;;;5032056;28;20213;-64
2021/10/30 05:55:39;;;;;;;3.55;2.20;;;7.00;99.90;;;;;;5033167;28;20181;-63
2021/10/30 05:58:07;;;;;;;3.38;2.38;;;7.10;99.90;;;;;;5032405;28;20541;-64
2021/10/30 06:00:35;;;;;;;2.00;1.77;;;7.10;99.90;;;;;;5032484;28;20607;-64
2021/10/30 06:03:03;;;;;;;5.28;1.90;;;7.00;99.90;;;;;;5032238;28;20229;-63
2021/10/30 06:05:32;;;;;;;4.10;2.65;;;7.00;99.90;;;;;;5032022;28;20573;-61
2021/10/30 06:08:00;;;;;;;3.33;2.30;;;7.00;99.90;;;;;;5032263;28;20209;-63
2021/10/30 06:10:30;;;;;;;1.95;1.35;;;7.00;99.90;;;;;;5030613;28;20205;-62
2021/10/30 06:13:00;;;;;;;2.83;2.63;;;7.00;99.90;;;;;;5031901;28;20213;-62
2021/10/30 06:15:28;;;;;;;3.42;2.80;;;7.00;99.90;;;;;;5032462;28;20646;-58
2021/10/30 06:17:56;;;;;;;1.55;1.20;;;7.10;99.90;;;;;;5031994;28;20177;-63
2021/10/30 06:20:24;;;;;;;3.47;2.40;;;7.10;99.90;;;;;;5032196;28;20228;-62
2021/10/30 06:22:52;;;;;;;2.72;2.15;;;7.10;99.90;;;;;;5032255;28;20547;-63
2021/10/30 06:25:20;;;;;;;3.90;3.60;;;7.00;99.90;;;;;;5032604;28;20177;-62
2021/10/30 06:27:48;;;;;;;9.98;1.98;;;7.10;99.90;;;;;;5031700;28;20201;-63
2021/10/30 06:30:18;;;;;;;3.65;2.22;;;7.20;99.90;;;;;;5031659;28;20181;-63
2021/10/30 06:32:46;;;;;;;4.88;2.17;;;7.20;99.90;;;;;;5031707;28;20216;-63
2021/10/30 06:35:15;;;;;;;2.15;1.95;;;7.10;99.90;;;;;;5032020;28;20582;-62
2021/10/30 06:37:43;;;;;;;2.25;2.15;;;7.10;99.90;;;;;;5032069;28;20178;-60
2021/10/30 06:40:13;;;;;;;3.42;2.20;;;7.10;99.90;;;;;;5032163;28;20189;-60
2021/10/30 06:42:42;;;;;;;1.92;1.60;;;7.20;99.90;;;;;;5032077;28;20552;-61
2021/10/30 06:45:11;;;;;;;2.05;1.73;;;7.20;99.90;;;;;;5032426;28;20213;-62
2021/10/30 06:47:41;;;;;;;4.80;1.90;;;7.20;99.90;;;;;;5032206;28;20603;-60
2021/10/30 06:50:19;;;;;;;7.97;3.38;;;7.20;99.90;;;;;;5029091;28;20277;-64
2021/10/30 06:52:49;;;;;;;4.85;2.35;;;7.30;99.90;;;;;;5034802;28;20316;-63
2021/10/30 06:55:17;;;;;;;1.90;1.55;;;7.40;99.90;;;;;;5035105;28;20189;-63
2021/10/30 06:57:47;;;;;;;3.15;2.95;;;7.50;99.90;;;;;;5033225;28;20634;-62
2021/10/30 07:00:16;;;;;;;4.60;2.45;;;7.60;99.90;;;;;;5032701;28;20192;-64
2021/10/30 07:02:47;;;;;;;2.50;2.25;;;7.60;99.90;;;;;;5032937;28;20220;-63
2021/10/30 07:05:15;;;;;;;3.83;2.92;;;7.60;99.90;;;;;;5031722;28;20209;-64
2021/10/30 07:07:44;;;;;;;3.38;2.40;;;7.70;99.90;;;;;;5032406;28;20205;-62
2021/10/30 07:10:12;;;;;;;10.75;3.72;;;7.80;99.90;;;;;;5031924;28;20244;-60
2021/10/30 07:12:40;;;;;;;10.18;1.70;;;7.90;99.90;;;;;;5031181;28;20217;-63
2021/10/30 07:15:11;;;;;;;10.18;2.58;;;7.90;99.90;;;;;;5031593;28;20185;-63
2021/10/30 07:17:40;;;;;;;1.70;1.45;;;8.00;99.90;;;;;;5031393;28;20178;-63
2021/10/30 07:20:11;;;;;;;3.00;1.98;;;8.10;99.90;;;;;;5031581;28;20189;-64
2021/10/30 07:22:43;;;;;;;4.95;3.15;;;8.20;99.90;;;;;;5031799;28;20205;-64
2021/10/30 07:25:11;;;;;;;9.02;3.60;;;8.30;99.90;;;;;;5032138;28;20688;-65
2021/10/30 07:27:40;;;;;;;3.60;1.77;;;8.40;99.90;;;;;;5031750;28;20259;-64
2021/10/30 07:30:10;;;;;;;4.47;1.35;;;8.40;99.90;;;;;;5030634;28;20193;-66
2021/10/30 07:32:38;;;;;;;2.33;2.17;;;8.50;99.90;;;;;;5031710;28;20217;-65
2021/10/30 07:35:07;;;;;;;2.90;1.23;;;8.40;99.90;;;;;;5031811;28;20192;-66
2021/10/30 07:37:38;;;;;;;3.38;1.77;;;8.40;99.90;;;;;;5021295;28;20690;-65
2021/10/30 07:40:08;;;;;;;3.42;2.55;;;8.50;99.90;;;;;;5012430;28;20189;-66
2021/10/30 07:42:36;;;;;;;2.40;2.15;;;8.70;99.90;;;;;;5012450;28;20210;-65
2021/10/30 07:45:05;;;;;;;1.80;1.70;;;8.80;99.90;;;;;;5013250;28;20686;-66
2021/10/30 07:47:33;;;;;;;3.13;2.20;;;9.00;99.90;;;;;;4994991;28;20272;-65
2021/10/30 07:50:01;;;;;;;3.47;3.28;;;9.00;99.90;;;;;;5012624;28;20213;-65
2021/10/30 07:52:30;;;;;;;1.42;1.33;;;9.10;99.90;;;;;;5012186;28;20678;-67
2021/10/30 07:54:59;;;;;;;1.98;1.73;;;9.20;99.90;;;;;;5012350;28;20179;-65
2021/10/30 07:57:27;;;;;;;3.95;1.90;;;9.30;99.90;;;;;;4994444;28;20182;-67
2021/10/30 07:59:56;;;;;;;2.35;2.25;;;9.40;99.90;;;;;;5011365;28;20178;-63
2021/10/30 08:02:24;;;;;;;7.20;2.92;;;9.50;99.90;;;;;;5011488;28;20241;-64
2021/10/30 08:04:52;;;;;;;2.35;2.03;;;9.60;99.90;;;;;;5011398;28;20588;-62
2021/10/30 08:07:20;;;;;;;1.83;1.63;;;9.70;99.90;;;;;;5011226;28;20293;-63
2021/10/30 08:09:50;;;;;;;3.43;2.60;;;9.70;99.90;;;;;;5011533;28;20186;-65
2021/10/30 08:12:19;;;;;;;3.30;3.00;;;9.80;99.90;;;;;;5011359;28;20452;-64
2021/10/30 08:14:48;;;;;;;4.13;2.27;;;9.90;99.90;;;;;;5011549;28;20428;-65
2021/10/30 08:17:16;;;;;;;2.90;2.67;;;10.00;99.90;;;;;;5013216;28;20437;-65
2021/10/30 08:19:44;;;;;;;2.27;1.87;;;10.00;99.90;;;;;;5015066;28;20416;-66
2021/10/30 08:22:12;;;;;;;6.23;2.13;;;10.10;99.90;;;;;;5015182;28;20440;-64
2021/10/30 08:24:40;;;;;;;2.40;1.13;;;10.20;99.90;;;;;;5015178;28;20605;-65
2021/10/30 08:27:08;;;;;;;3.73;2.80;;;10.20;99.90;;;;;;5015087;28;20413;-65
2021/10/30 08:29:38;;;;;;;2.07;1.80;;;10.20;99.90;;;;;;5015618;28;20456;-64
2021/10/30 08:32:07;;;;;;;1.70;1.33;;;10.30;99.90;;;;;;5015003;28;20452;-65
2021/10/30 08:34:35;;;;;;;2.73;2.53;;;10.40;99.90;;;;;;5015042;28;20471;-64
2021/10/30 08:37:04;;;;;;;2.70;1.67;;;10.40;99.90;;;;;;5014345;28;20405;-62
2021/10/30 08:39:32;;;;;;;3.40;3.20;;;10.60;99.90;;;;;;5014273;28;20487;-61
2021/10/30 08:42:01;;;;;;;6.40;3.23;;;10.70;99.90;;;;;;5014437;28;20483;-59
2021/10/30 08:44:29;;;;;;;5.73;2.40;;;10.70;99.90;;;;;;5013736;28;20429;-64
2021/10/30 08:47:01;;;;;;;1.93;1.73;;;10.80;99.90;;;;;;5014707;28;20420;-65
2021/10/30 08:49:30;;;;;;;1.30;0.83;;;10.90;99.90;;;;;;5014673;28;20613;-66
2021/10/30 08:51:59;;;;;;;2.40;1.23;;;11.00;99.90;;;;;;5014712;28;20445;-67
2021/10/30 08:54:30;;;;;;;3.03;2.73;;;11.00;99.90;;;;;;5016394;28;20898;-64
2021/10/30 08:56:58;;;;;;;2.00;1.67;;;11.00;99.90;;;;;;5014603;28;20413;-65
2021/10/30 08:59:40;;;;;;;1.77;1.60;;;11.10;99.90;;;;;;5015296;28;20956;-65
2021/10/30 09:02:24;;;;;;;3.03;2.83;;;11.20;99.90;;;;;;5014621;28;20456;-66
2021/10/30 09:05:08;;;;;;;4.10;3.30;;;11.20;99.90;;;;;;5014415;28;20416;-65
2021/10/30 09:07:37;;;;;;;2.20;1.83;;;11.40;99.90;;;;;;5014385;28;20409;-63
2021/10/30 09:10:10;;;;;;;3.00;1.97;;;11.50;99.90;;;;;;5014250;28;20417;-59
2021/10/30 09:12:38;;;;;;;1.83;1.20;;;11.40;99.90;;;;;;5013950;28;20463;-61
2021/10/30 09:15:08;;;;;;;2.87;2.10;;;11.50;99.90;;;;;;5013762;28;20403;-62
2021/10/30 09:17:37;;;;;;;2.30;1.63;;;11.50;99.90;;;;;;5013955;28;20538;-65
2021/10/30 09:20:08;;;;;;;5.87;2.93;;;11.70;99.90;;;;;;5013619;28;20495;-63
2021/10/30 09:22:37;;;;;;;2.60;1.60;;;11.80;99.90;;;;;;5013411;28;20449;-63
2021/10/30 09:25:07;;;;;;;3.13;1.93;;;12.00;99.90;;;;;;5014284;28;20421;-61
2021/10/30 09:27:49;;;;;;;6.10;2.60;;;12.10;99.90;;;;;;5013786;28;20935;-62
2021/10/30 09:30:19;;;;;;;2.23;2.03;;;12.20;99.90;;;;;;5013165;28;20410;-63
2021/10/30 09:33:00;;;;;;;2.13;1.93;;;12.40;99.90;;;;;;5013461;28;20580;-61
2021/10/30 09:35:30;;;;;;;1.83;1.53;;;12.50;99.90;;;;;;5013843;28;20904;-65
2021/10/30 09:37:59;;;;;;;3.17;2.30;;;12.60;99.90;;;;;;5013996;28;20887;-63
2021/10/30 09:40:30;;;;;;;3.90;2.47;;;12.60;99.90;;;;;;5013680;28;20413;-62
2021/10/30 09:43:16;;;;;;;2.80;2.00;;;12.60;99.90;;;;;;5013289;28;20420;-62
2021/10/30 09:45:47;;;;;;;6.77;2.00;;;12.70;99.90;;;;;;5013338;28;20864;-63
2021/10/30 09:48:23;;;;;;;10.00;2.67;;;12.80;99.90;;;;;;5013258;28;20430;-63
2021/10/30 09:50:53;;;;;;;4.20;2.27;;;12.90;99.90;;;;;;5013196;28;20387;-63
2021/10/30 09:53:33;;;;;;;3.40;2.00;;;13.00;99.90;;;;;;5013456;28;20426;-63
2021/10/30 09:56:06;;;;;;;2.60;2.37;;;12.90;99.90;;;;;;5013211;28;20420;-61
2021/10/30 09:58:36;;;;;;;1.10;0.97;;;12.90;99.90;;;;;;5012963;28;20405;-62
2021/10/30 10:01:10;;;;;;;2.33;1.70;;;12.90;99.90;;;;;;5012826;28;20409;-64
2021/10/30 10:03:41;;;;;;;2.20;1.43;;;12.90;99.90;;;;;;5012920;28;20445;-65
2021/10/30 10:06:14;;;;;;;2.90;1.87;;;13.10;99.90;;;;;;5036901;23;20540;-67
2021/10/30 10:08:43;;;;;;;2.10;1.90;;;13.10;99.90;;;;;;5036239;28;20608;-67
2021/10/30 10:11:13;;;;;;;4.23;2.00;;;13.30;99.90;;;;;;5033310;28;20883;-66
2021/10/30 10:13:43;;;;;;;7.97;3.80;;;13.20;99.90;;;;;;5031865;28;20828;-67
2021/10/30 10:16:13;;;;;;;1.90;1.30;;;13.20;99.90;;;;;;5032194;28;20803;-67
2021/10/30 10:18:43;;;;;;;2.77;2.40;;;13.20;99.90;;;;;;5032171;28;20424;-67
2021/10/30 10:21:14;;;;;;;2.30;1.57;;;13.20;99.90;;;;;;5032563;28;20406;-67
2021/10/30 10:23:43;;;;;;;4.13;2.03;;;13.30;99.90;;;;;;5032089;28;20510;-67
2021/10/30 10:26:12;;;;;;;2.70;1.13;;;13.30;99.90;;;;;;5032011;28;20404;-68
2021/10/30 10:28:41;;;;;;;1.97;1.77;;;13.30;99.90;;;;;;5032111;28;20395;-66
2021/10/30 10:31:13;;;;;;;3.47;2.40;;;13.30;99.90;;;;;;5032272;28;20858;-66
2021/10/30 10:33:43;;;;;;;1.93;1.73;;;13.40;99.90;;;;;;5031855;28;20473;-66
2021/10/30 10:36:23;;;;;;;2.70;1.67;;;13.50;99.90;;;;;;5032153;28;20432;-66
2021/10/30 10:39:09;;;;;;;3.13;2.10;;;13.50;99.90;;;;;;5032377;28;20390;-67
2021/10/30 10:41:58;;;;;;;1.90;1.77;;;13.60;99.90;;;;;;5014130;28;20419;-68
2021/10/30 10:44:54;;;;;;;2.10;1.90;;;13.60;99.90;;;;;;5032264;28;20426;-66
2021/10/30 10:47:53;;;;;;;3.00;2.30;;;13.60;99.90;;;;;;5014287;28;20491;-66
2021/10/30 10:50:34;;;;;;;2.07;1.87;;;13.70;99.90;;;;;;5032014;28;20879;-66
2021/10/30 10:53:27;;;;;;;2.13;1.47;;;13.70;99.90;;;;;;5032575;28;20842;-67
2021/10/30 10:56:19;;;;;;;3.57;1.47;;;13.70;99.90;;;;;;5032046;28;20423;-67
2021/10/30 10:59:10;;;;;;;2.83;1.50;;;13.70;99.90;;;;;;5014891;28;20513;-65
2021/10/30 11:02:03;;;;;;;4.40;2.67;;;13.70;99.90;;;;;;5032918;28;20490;-66
2021/10/30 11:04:31;;;;;;;4.87;4.47;;;13.70;99.90;;;;;;5032864;28;20398;-67
2021/10/30 11:07:17;;;;;;;4.40;2.73;;;13.90;99.90;;;;;;5031689;28;20964;-67
2021/10/30 11:09:55;;;;;;;2.67;2.40;;;14.10;99.90;;;;;;5031583;28;20538;-66
2021/10/30 11:12:24;;;;;;;2.30;2.13;;;14.10;99.90;;;;;;5032126;28;20415;-66
2021/10/30 11:15:05;;;;;;;4.13;2.77;;;14.20;99.90;;;;;;5031946;28;20402;-67
2021/10/30 11:17:51;;;;;;;5.57;2.00;;;14.20;99.90;;;;;;5031866;28;20419;-67
2021/10/30 11:20:20;;;;;;;1.00;0.67;;;14.30;99.90;;;;;;5031865;28;20379;-67
2021/10/30 11:22:56;;;;;;;5.00;2.80;;;14.40;99.90;;;;;;5031895;28;20960;-66
2021/10/30 11:25:24;;;;;;;4.00;2.30;;;14.40;99.90;;;;;;5031688;28;20394;-67
2021/10/30 11:27:54;;;;;;;1.90;1.60;;;14.40;99.90;;;;;;5031641;28;20423;-66
2021/10/30 11:30:33;;;;;;;3.23;1.53;;;14.40;99.90;;;;;;5032454;28;20486;-65
2021/10/30 11:33:16;;;;;;;2.70;1.70;;;14.30;99.90;;;;;;5033523;28;20410;-66
2021/10/30 11:36:00;;;;;;;5.00;1.97;;;14.30;99.90;;;;;;5033784;28;20515;-66
2021/10/30 11:38:31;;;;;;;2.60;1.27;;;14.30;99.90;;;;;;5033021;28;20750;-65
2021/10/30 11:41:02;;;;;;;2.13;1.80;;;14.40;99.90;;;;;;5031670;28;20375;-65
2021/10/30 11:43:32;;;;;;;3.13;2.03;;;14.50;99.90;;;;;;5031513;28;20474;-68
2021/10/30 11:46:01;;;;;;;2.03;1.30;;;14.60;99.90;;;;;;5031809;28;20431;-68
2021/10/30 11:48:37;;;;;;;2.80;2.10;;;14.60;99.90;;;;;;5031237;28;20476;-67
2021/10/30 11:51:08;;;;;;;2.67;2.47;;;14.50;99.90;;;;;;5031292;28;21057;-66
2021/10/30 11:53:38;;;;;;;2.43;2.00;;;14.50;99.90;;;;;;5035509;28;20439;-66
2021/10/30 11:56:09;;;;;;;1.43;1.33;;;14.60;99.90;;;;;;5035432;28;20465;-67
2021/10/30 11:58:39;;;;;;;6.73;3.47;;;14.60;99.90;;;;;;5035629;28;20419;-67
2021/10/30 12:01:25;;;;;;;3.30;1.57;;;14.70;99.90;;;;;;5035561;28;20390;-66
2021/10/30 12:03:57;;;;;;;2.90;1.83;;;14.80;99.90;;;;;;5035026;28;20458;-66
2021/10/30 12:06:48;;;;;;;2.60;2.40;;;14.80;99.90;;;;;;5035005;28;20494;-66
2021/10/30 12:09:28;;;;;;;5.00;1.43;;;14.90;99.90;;;;;;5035423;28;20435;-66
2021/10/30 12:11:57;;;;;;;4.13;1.70;;;15.00;99.90;;;;;;5035975;28;20418;-66
2021/10/30 12:14:27;;;;;;;2.00;1.50;;;15.10;99.90;;;;;;5036098;28;20464;-66
2021/10/30 12:16:57;;;;;;;3.03;2.70;;;15.10;99.90;;;;;;5035849;28;20395;-66
2021/10/30 12:19:27;;;;;;;2.00;1.77;;;15.10;99.90;;;;;;5036547;28;20406;-66
2021/10/30 12:22:06;;;;;;;2.47;2.27;;;15.00;99.90;;;;;;5035113;28;20436;-66
2021/10/30 12:24:37;;;;;;;4.10;1.90;;;15.00;99.90;;;;;;5034583;28;20471;-66
2021/10/30 12:27:08;;;;;;;4.13;3.83;;;15.00;99.90;;;;;;5034833;28;21156;-67
2021/10/30 12:29:43;;;;;;;3.17;2.00;;;15.00;99.90;;;;;;5034606;28;20433;-67
2021/10/30 12:32:14;;;;;;;1.30;1.20;;;14.90;99.90;;;;;;5034246;28;20439;-67
2021/10/30 12:34:56;;;;;;;3.73;3.43;;;14.80;99.90;;;;;;5034304;28;20490;-67
2021/10/30 12:37:27;;;;;;;1.63;1.53;;;14.90;99.90;;;;;;5034242;28;20490;-68
2021/10/30 12:40:01;;;;;;;4.20;2.77;;;14.90;99.90;;;;;;5034274;28;20837;-66
2021/10/30 12:42:29;;;;;;;6.07;3.50;;;14.90;99.90;;;;;;5034184;28;20779;-68
2021/10/30 12:44:57;;;;;;;2.80;2.10;;;15.00;99.90;;;;;;5034502;28;20808;-67
2021/10/30 12:47:27;;;;;;;4.27;1.50;;;14.90;99.90;;;;;;5033881;28;20810;-66
2021/10/30 12:49:57;;;;;;;3.67;2.43;;;14.90;99.90;;;;;;5033547;28;20470;-67
2021/10/30 12:52:40;;;;;;;3.37;2.63;;;15.00;99.90;;;;;;5033808;28;20418;-71
2021/10/30 12:55:14;;;;;;;4.23;2.80;;;14.90;99.90;;;;;;5033756;28;20394;-67
2021/10/30 12:57:43;;;;;;;2.80;1.73;;;14.90;99.90;;;;;;5033758;28;20765;-67
2021/10/30 13:00:15;;;;;;;1.50;1.00;;;15.00;99.90;;;;;;5034031;28;20498;-66
2021/10/30 13:02:44;;;;;;;2.10;1.70;;;15.00;99.90;;;;;;5034176;28;20922;-67
2021/10/30 13:05:14;;;;;;;2.87;2.33;;;15.00;99.90;;;;;;5034240;28;20408;-68
2021/10/30 13:07:45;;;;;;;3.43;2.17;;;15.10;99.90;;;;;;5034341;28;20593;-68
2021/10/30 13:10:17;;;;;;;2.13;1.67;;;14.90;99.90;;;;;;5033894;28;20452;-68